Nordbaltic — P3QN9 — position and weather

sailwx.info

Track history (hours):
 
Tides and Currents Weather Stations Pressure Air Temp Water Temp Dewpoint Dewpoint Depression Visibility Wind Speed Wind Dir Waves Ship Positions

Nordbaltic

Last reported at 2017-Nov-02 22:00 UTC. Time now 2017-Dec-12 12:33 UTC.
Position N 08°47' W 015°31'.
Warning: this ship's position is 39 days out of date.

Length 207 m; draft 11.1 m.

Type: Cargo ship. MMSI: 210117000.

Date/timePositionNaut miles runAvg speedWind from/ knotsBaromVisibWave heightAir tempDewpointWater temp
2017-Nov-02 22:00N 08°47' W 015°31'  
2017-Oct-31 10:35N 25°21' W 015°59'11217.6
2017-Oct-31 04:14N 26°50' W 014°45'417.7
2017-Oct-31 04:00N 26°54' W 014°42'1117.7
2017-Oct-31 03:23N 27°02' W 014°35'717.9
2017-Oct-31 03:00N 27°08' W 014°30'918.2
2017-Oct-31 02:30N 27°15' W 014°24'917.9
2017-Oct-31 02:00N 27°22' W 014°18'918.0
2017-Oct-31 01:30N 27°29' W 014°12'918.1
2017-Oct-31 01:00N 27°37' W 014°07'917.7
2017-Oct-31 00:30N 27°44' W 014°01'917.4
2017-Oct-31 00:00N 27°52' W 013°56'917.1
2017-Oct-30 23:30N 27°59' W 013°51'917.5
2017-Oct-30 23:01N 28°07' W 013°46'917.8
2017-Oct-30 22:30N 28°14' W 013°41'1017.8
2017-Oct-30 21:57N 28°23' W 013°35'817.7
2017-Oct-30 21:30N 28°29' W 013°30'1017.8
2017-Oct-30 20:57N 28°38' W 013°25'817.8
2017-Oct-30 20:30N 28°45' W 013°20'917.5
2017-Oct-30 20:00N 28°52' W 013°15'917.5
2017-Oct-30 19:30N 28°60' W 013°10'917.8
2017-Oct-30 19:00N 29°07' W 013°05'917.7
2017-Oct-30 18:30N 29°15' W 012°59'917.6
2017-Oct-30 18:00N 29°23' W 012°54'917.7
2017-Oct-30 17:30N 29°30' W 012°49'917.5
2017-Oct-30 17:00N 29°38' W 012°44'1017.6
2017-Oct-30 16:25N 29°46' W 012°38'717.5
2017-Oct-30 16:00N 29°53' W 012°33'917.5
2017-Oct-30 15:30N 30°00' W 012°28'917.3
2017-Oct-30 15:00N 30°08' W 012°23'1717.3
2017-Oct-30 14:00N 30°22' W 012°11'917.5
2017-Oct-30 13:30N 30°29' W 012°05'917.7
2017-Oct-30 13:00N 30°36' W 011°59'917.5
2017-Oct-30 12:30N 30°43' W 011°54'1017.1
2017-Oct-30 11:54N 30°52' W 011°47'717.3
2017-Oct-30 11:30N 30°57' W 011°43'917.6
2017-Oct-30 11:00N 31°05' W 011°37'917.8
2017-Oct-30 10:30N 31°12' W 011°31'917.8
2017-Oct-30 09:59N 31°20' W 011°25'918.1
2017-Oct-30 09:30N 31°27' W 011°19'918.2
2017-Oct-30 09:00N 31°34' W 011°13'918.0
2017-Oct-30 08:30N 31°41' W 011°07'918.1
2017-Oct-30 08:00N 31°49' W 011°01'918.0
2017-Oct-30 07:30N 31°56' W 010°55'917.9
2017-Oct-30 07:00N 32°04' W 010°49'1117.7
2017-Oct-30 06:24N 32°12' W 010°41'717.8
2017-Oct-30 06:00N 32°18' W 010°36'917.6
2017-Oct-30 05:30N 32°25' W 010°30'1017.7
2017-Oct-30 04:56N 32°33' W 010°23'1417.8
2017-Oct-30 04:08N 32°45' W 010°13'1617.9
2017-Oct-30 03:14N 32°58' W 010°02'417.9
2017-Oct-30 03:00N 33°01' W 009°59'1117.7
2017-Oct-30 02:24N 33°10' W 009°51'4217.8
2017-Oct-30 00:01N 33°39' W 009°14'2218.0
2017-Oct-29 22:46N 33°53' W 008°53'618.3
2017-Oct-29 22:26N 33°57' W 008°47'818.1
2017-Oct-29 21:59N 34°02' W 008°40'918.1
2017-Oct-29 21:28N 34°08' W 008°31'817.9
2017-Oct-29 21:00N 34°13' W 008°23'1018.1
2017-Oct-29 20:29N 34°19' W 008°14'1217.7
2017-Oct-29 19:47N 34°27' W 008°03'517.6
2017-Oct-29 19:30N 34°30' W 007°58'1417.8
2017-Oct-29 18:43N 34°39' W 007°45'517.8
2017-Oct-29 18:26N 34°42' W 007°41'1017.9
2017-Oct-29 17:54N 34°48' W 007°32'717.9
2017-Oct-29 17:30N 34°53' W 007°25'2017.9
2017-Oct-29 16:23N 35°06' W 007°07'2718.1
2017-Oct-29 14:55N 35°23' W 006°42'817.8
2017-Oct-29 14:27N 35°28' W 006°34'6416.6
2017-Oct-29 10:37N 36°00' W 005°26'215.0
2017-Oct-29 10:30N 36°02' W 005°25'  
2017-Oct-24 02:12N 34°60' W 007°17'411.9
2017-Oct-24 01:54N 34°57' W 007°20'511.8
2017-Oct-24 01:30N 34°54' W 007°25'611.8
2017-Oct-24 01:00N 34°51' W 007°30'611.8
2017-Oct-24 00:29N 34°46' W 007°36'611.9
2017-Oct-24 00:00N 34°43' W 007°41'611.9
2017-Oct-23 23:30N 34°39' W 007°47'  
Track history (hours):
 
Tides and Currents Weather Stations Pressure Air Temp Water Temp Dewpoint Dewpoint Depression Visibility Wind Speed Wind Dir Waves Ship Positions

Nordbaltic

Last reported at 2017-Nov-02 22:00 UTC. Time now 2017-Dec-12 12:33 UTC.
Position N 08°47' W 015°31'.
Warning: this ship's position is 39 days out of date.

Length 207 m; draft 11.1 m.

Type: Cargo ship. MMSI: 210117000.

Date/timePositionNaut miles runAvg speedWind from/ knotsBaromVisibWave heightAir tempDewpointWater temp
2017-Nov-02 22:00N 08°47' W 015°31'  
2017-Oct-31 10:35N 25°21' W 015°59'11217.6
2017-Oct-31 04:14N 26°50' W 014°45'417.7
2017-Oct-31 04:00N 26°54' W 014°42'1117.7
2017-Oct-31 03:23N 27°02' W 014°35'717.9
2017-Oct-31 03:00N 27°08' W 014°30'918.2
2017-Oct-31 02:30N 27°15' W 014°24'917.9
2017-Oct-31 02:00N 27°22' W 014°18'918.0
2017-Oct-31 01:30N 27°29' W 014°12'918.1
2017-Oct-31 01:00N 27°37' W 014°07'917.7
2017-Oct-31 00:30N 27°44' W 014°01'917.4
2017-Oct-31 00:00N 27°52' W 013°56'917.1
2017-Oct-30 23:30N 27°59' W 013°51'917.5
2017-Oct-30 23:01N 28°07' W 013°46'917.8
2017-Oct-30 22:30N 28°14' W 013°41'1017.8
2017-Oct-30 21:57N 28°23' W 013°35'817.7
2017-Oct-30 21:30N 28°29' W 013°30'1017.8
2017-Oct-30 20:57N 28°38' W 013°25'817.8
2017-Oct-30 20:30N 28°45' W 013°20'917.5
2017-Oct-30 20:00N 28°52' W 013°15'917.5
2017-Oct-30 19:30N 28°60' W 013°10'917.8
2017-Oct-30 19:00N 29°07' W 013°05'917.7
2017-Oct-30 18:30N 29°15' W 012°59'917.6
2017-Oct-30 18:00N 29°23' W 012°54'917.7
2017-Oct-30 17:30N 29°30' W 012°49'917.5
2017-Oct-30 17:00N 29°38' W 012°44'1017.6
2017-Oct-30 16:25N 29°46' W 012°38'717.5
2017-Oct-30 16:00N 29°53' W 012°33'917.5
2017-Oct-30 15:30N 30°00' W 012°28'917.3
2017-Oct-30 15:00N 30°08' W 012°23'1717.3
2017-Oct-30 14:00N 30°22' W 012°11'917.5
2017-Oct-30 13:30N 30°29' W 012°05'917.7
2017-Oct-30 13:00N 30°36' W 011°59'917.5
2017-Oct-30 12:30N 30°43' W 011°54'1017.1
2017-Oct-30 11:54N 30°52' W 011°47'717.3
2017-Oct-30 11:30N 30°57' W 011°43'917.6
2017-Oct-30 11:00N 31°05' W 011°37'917.8
2017-Oct-30 10:30N 31°12' W 011°31'917.8
2017-Oct-30 09:59N 31°20' W 011°25'918.1
2017-Oct-30 09:30N 31°27' W 011°19'918.2
2017-Oct-30 09:00N 31°34' W 011°13'918.0
2017-Oct-30 08:30N 31°41' W 011°07'918.1
2017-Oct-30 08:00N 31°49' W 011°01'918.0
2017-Oct-30 07:30N 31°56' W 010°55'917.9
2017-Oct-30 07:00N 32°04' W 010°49'1117.7
2017-Oct-30 06:24N 32°12' W 010°41'717.8
2017-Oct-30 06:00N 32°18' W 010°36'917.6
2017-Oct-30 05:30N 32°25' W 010°30'1017.7
2017-Oct-30 04:56N 32°33' W 010°23'1417.8
2017-Oct-30 04:08N 32°45' W 010°13'1617.9
2017-Oct-30 03:14N 32°58' W 010°02'417.9
2017-Oct-30 03:00N 33°01' W 009°59'1117.7
2017-Oct-30 02:24N 33°10' W 009°51'4217.8
2017-Oct-30 00:01N 33°39' W 009°14'2218.0
2017-Oct-29 22:46N 33°53' W 008°53'618.3
2017-Oct-29 22:26N 33°57' W 008°47'818.1
2017-Oct-29 21:59N 34°02' W 008°40'918.1
2017-Oct-29 21:28N 34°08' W 008°31'817.9
2017-Oct-29 21:00N 34°13' W 008°23'1018.1
2017-Oct-29 20:29N 34°19' W 008°14'1217.7
2017-Oct-29 19:47N 34°27' W 008°03'517.6
2017-Oct-29 19:30N 34°30' W 007°58'1417.8
2017-Oct-29 18:43N 34°39' W 007°45'517.8
2017-Oct-29 18:26N 34°42' W 007°41'1017.9
2017-Oct-29 17:54N 34°48' W 007°32'717.9
2017-Oct-29 17:30N 34°53' W 007°25'2017.9
2017-Oct-29 16:23N 35°06' W 007°07'2718.1
2017-Oct-29 14:55N 35°23' W 006°42'817.8
2017-Oct-29 14:27N 35°28' W 006°34'6416.6
2017-Oct-29 10:37N 36°00' W 005°26'215.0
2017-Oct-29 10:30N 36°02' W 005°25'  
2017-Oct-24 02:12N 34°60' W 007°17'411.9
2017-Oct-24 01:54N 34°57' W 007°20'511.8
2017-Oct-24 01:30N 34°54' W 007°25'611.8
2017-Oct-24 01:00N 34°51' W 007°30'611.8
2017-Oct-24 00:29N 34°46' W 007°36'611.9
2017-Oct-24 00:00N 34°43' W 007°41'611.9
2017-Oct-23 23:30N 34°39' W 007°47'  

Dump ship's entire track history